createdAt,value
2023-10-23T00:00:20.509Z,6.38
2023-10-23T00:01:22.200Z,6.97
2023-10-23T00:02:24.177Z,5.82
2023-10-23T00:03:25.916Z,6.30
2023-10-23T00:04:27.740Z,6.10
2023-10-23T00:05:29.954Z,6.72
2023-10-23T00:06:32.277Z,5.85
2023-10-23T00:07:34.124Z,5.75
2023-10-23T00:08:35.976Z,6.05
2023-10-23T00:09:37.647Z,6.25
2023-10-23T00:10:39.298Z,6.40
2023-10-23T00:11:40.993Z,6.88
2023-10-23T00:12:42.724Z,6.57
2023-10-23T00:13:44.312Z,6.60
2023-10-23T00:14:45.915Z,7.00
2023-10-23T00:15:47.905Z,7.22
2023-10-23T00:16:49.568Z,6.30
2023-10-23T00:17:51.291Z,7.18
2023-10-23T00:18:53.655Z,6.85
2023-10-23T00:19:55.314Z,6.97
2023-10-23T00:20:57.370Z,7.18
2023-10-23T00:21:59.031Z,7.18
2023-10-23T00:23:00.602Z,7.75
2023-10-23T00:24:02.159Z,7.28
2023-10-23T00:25:04.569Z,7.38
2023-10-23T00:26:06.915Z,7.10
2023-10-23T00:27:08.547Z,6.75
2023-10-23T00:28:10.245Z,7.35
2023-10-23T00:29:11.901Z,7.43
2023-10-23T00:30:13.900Z,7.45
2023-10-23T00:31:15.554Z,6.70
2023-10-23T00:32:17.267Z,6.65
2023-10-23T00:33:19.068Z,7.43
2023-10-23T00:34:20.903Z,6.75
2023-10-23T00:35:22.826Z,7.15
2023-10-23T00:36:24.565Z,7.32
2023-10-23T00:37:26.308Z,6.72
2023-10-23T00:38:29.972Z,6.93
2023-10-23T00:39:31.711Z,7.20
2023-10-23T00:40:33.392Z,7.20
2023-10-23T00:41:35.029Z,7.28
2023-10-23T00:42:36.705Z,7.07
2023-10-23T00:43:38.311Z,7.03
2023-10-23T00:44:39.909Z,7.63
2023-10-23T00:45:51.231Z,6.85
2023-10-23T00:46:53.683Z,7.05
2023-10-23T00:47:55.808Z,6.65
2023-10-23T00:48:59.592Z,6.78
2023-10-23T00:50:01.474Z,7.07
2023-10-23T00:51:04.302Z,7.18
2023-10-23T00:52:07.023Z,7.10
2023-10-23T00:53:09.069Z,7.05
2023-10-23T00:54:10.796Z,7.10
2023-10-23T00:55:13.164Z,6.70
2023-10-23T00:56:15.086Z,7.53
2023-10-23T00:57:17.025Z,7.60
2023-10-23T00:58:19.737Z,6.63
2023-10-23T00:59:22.296Z,6.57
2023-10-23T01:00:24.198Z,6.97
2023-10-23T01:01:28.005Z,7.53
2023-10-23T01:02:29.947Z,7.30
2023-10-23T01:03:32.611Z,6.78
2023-10-23T01:04:34.237Z,7.18
2023-10-23T01:05:38.325Z,7.20
2023-10-23T01:06:40.308Z,7.15
2023-10-23T01:07:41.990Z,6.70
2023-10-23T01:08:44.226Z,7.07
2023-10-23T01:09:45.927Z,6.85
2023-10-23T01:10:48.364Z,7.18
2023-10-23T01:11:50.133Z,6.70
2023-10-23T01:12:54.615Z,6.90
2023-10-23T01:13:56.275Z,7.47
2023-10-23T01:14:57.917Z,7.70
2023-10-23T01:15:59.492Z,6.72
2023-10-23T01:17:01.153Z,6.82
2023-10-23T01:18:04.140Z,6.65
2023-10-23T01:19:06.155Z,7.25
2023-10-23T01:20:10.792Z,6.65
2023-10-23T01:21:12.416Z,7.57
2023-10-23T01:22:14.000Z,7.30
2023-10-23T01:23:15.729Z,6.85
2023-10-23T01:24:18.084Z,7.18
2023-10-23T01:25:19.687Z,7.13
2023-10-23T01:26:21.317Z,6.65
2023-10-23T01:27:22.959Z,7.18
2023-10-23T01:28:24.591Z,6.53
2023-10-23T01:29:26.184Z,7.38
2023-10-23T01:30:27.788Z,6.80
2023-10-23T01:31:29.359Z,6.85
2023-10-23T01:32:30.990Z,6.82
2023-10-23T01:33:32.700Z,7.60
2023-10-23T01:34:34.364Z,6.50
2023-10-23T01:35:36.012Z,6.88
2023-10-23T01:36:39.151Z,7.10
2023-10-23T01:37:43.919Z,7.07
2023-10-23T01:38:45.545Z,6.50
2023-10-23T01:39:47.153Z,7.30
2023-10-23T01:40:48.810Z,6.68
2023-10-23T01:41:50.427Z,7.10
2023-10-23T01:42:52.108Z,7.35
2023-10-23T01:43:53.707Z,7.10
2023-10-23T01:44:58.805Z,7.20
2023-10-23T01:46:00.879Z,6.97
2023-10-23T01:47:02.896Z,6.72
2023-10-23T01:48:05.081Z,7.00
2023-10-23T01:49:06.798Z,6.78
2023-10-23T01:50:08.670Z,7.43
2023-10-23T01:51:10.781Z,6.38
2023-10-23T01:52:12.379Z,7.93
2023-10-23T01:53:14.525Z,6.78
2023-10-23T01:54:16.225Z,7.55
2023-10-23T01:55:18.171Z,6.65
2023-10-23T01:56:19.763Z,6.38
2023-10-23T01:57:21.869Z,6.28
2023-10-23T01:58:23.473Z,6.60
2023-10-23T01:59:25.061Z,6.10
2023-10-23T02:00:26.963Z,6.50
2023-10-23T02:01:28.911Z,7.18
2023-10-23T02:02:31.274Z,6.32
2023-10-23T02:03:33.334Z,5.70
2023-10-23T02:04:39.993Z,6.35
2023-10-23T02:05:41.873Z,6.50
2023-10-23T02:06:43.692Z,6.30
2023-10-23T02:07:45.378Z,6.90
2023-10-23T02:08:47.042Z,5.88
2023-10-23T02:09:48.663Z,6.80
2023-10-23T02:10:50.264Z,6.30
2023-10-23T02:11:51.868Z,5.78
2023-10-23T02:12:53.563Z,6.00
2023-10-23T02:13:55.382Z,5.95
2023-10-23T02:14:57.552Z,5.97
2023-10-23T02:15:59.277Z,6.05
2023-10-23T02:17:00.944Z,6.80
2023-10-23T02:18:02.674Z,6.50
2023-10-23T02:19:04.675Z,7.25
2023-10-23T02:20:06.703Z,5.72
2023-10-23T02:21:08.586Z,6.38
2023-10-23T02:22:10.238Z,7.15
2023-10-23T02:23:11.807Z,6.40
2023-10-23T02:24:13.392Z,6.50
2023-10-23T02:25:17.852Z,6.88
2023-10-23T02:26:19.760Z,6.15
2023-10-23T02:27:21.421Z,6.20
2023-10-23T02:28:23.182Z,6.32
2023-10-23T02:29:24.795Z,6.45
2023-10-23T02:30:26.477Z,7.07
2023-10-23T02:31:28.160Z,6.15
2023-10-23T02:32:29.850Z,6.22
2023-10-23T02:33:32.004Z,6.25
2023-10-23T02:34:34.338Z,5.90
2023-10-23T02:35:37.573Z,6.20
2023-10-23T02:36:39.217Z,6.60
2023-10-23T02:37:40.828Z,6.13
2023-10-23T02:38:43.341Z,6.18
2023-10-23T02:39:45.060Z,7.00
2023-10-23T02:40:53.834Z,5.82
2023-10-23T02:41:55.429Z,6.05
2023-10-23T02:42:57.134Z,6.70
2023-10-23T02:43:58.940Z,6.53
2023-10-23T02:45:00.599Z,6.18
2023-10-23T02:46:03.036Z,7.13
2023-10-23T02:47:04.891Z,6.07
2023-10-23T02:48:06.744Z,5.90
2023-10-23T02:49:08.517Z,6.93
2023-10-23T02:50:10.545Z,6.68
2023-10-23T02:51:12.145Z,6.22
2023-10-23T02:52:14.127Z,6.28
2023-10-23T02:53:15.727Z,6.82
2023-10-23T02:54:17.543Z,7.93
2023-10-23T02:55:19.271Z,6.80
2023-10-23T02:56:20.962Z,7.50
2023-10-23T02:57:22.621Z,5.88
2023-10-23T02:58:24.257Z,6.13
2023-10-23T02:59:25.874Z,5.55
2023-10-23T03:00:27.724Z,6.35
2023-10-23T03:01:29.402Z,6.80
2023-10-23T03:02:31.024Z,5.90
2023-10-23T03:03:32.699Z,6.35
2023-10-23T03:04:34.661Z,6.60
2023-10-23T03:05:36.308Z,6.90
2023-10-23T03:06:37.983Z,6.00
2023-10-23T03:07:39.589Z,6.53
2023-10-23T03:08:41.699Z,6.00
2023-10-23T03:09:43.446Z,6.70
2023-10-23T03:10:45.096Z,6.38
2023-10-23T03:11:46.730Z,6.25
2023-10-23T03:12:48.401Z,6.45
2023-10-23T03:13:51.520Z,6.40
2023-10-23T03:14:53.351Z,7.13
2023-10-23T03:15:55.023Z,6.63
2023-10-23T03:16:56.768Z,6.30
2023-10-23T03:17:58.598Z,5.80
2023-10-23T03:19:00.587Z,6.60
2023-10-23T03:20:02.337Z,5.30
2023-10-23T03:21:04.555Z,5.95
2023-10-23T03:22:06.134Z,5.75
2023-10-23T03:23:07.838Z,6.75
2023-10-23T03:24:09.854Z,6.18
2023-10-23T03:25:11.554Z,7.22
2023-10-23T03:26:13.210Z,6.82
2023-10-23T03:27:14.900Z,6.68
2023-10-23T03:28:16.481Z,6.85
2023-10-23T03:29:18.260Z,7.07
2023-10-23T03:30:19.990Z,6.97
2023-10-23T03:31:21.688Z,7.40
2023-10-23T03:32:23.402Z,7.13
2023-10-23T03:33:25.015Z,6.80
2023-10-23T03:34:26.685Z,6.40
2023-10-23T03:35:28.272Z,6.53
2023-10-23T03:36:30.022Z,6.53
2023-10-23T03:37:32.008Z,6.22
2023-10-23T03:38:33.637Z,7.18
2023-10-23T03:39:35.946Z,7.40
2023-10-23T03:40:38.426Z,6.60
2023-10-23T03:41:39.996Z,6.68
2023-10-23T03:42:41.651Z,7.22
2023-10-23T03:43:43.333Z,7.28
2023-10-23T03:44:44.967Z,6.72
2023-10-23T03:45:46.605Z,6.78
2023-10-23T03:46:48.301Z,7.05
2023-10-23T03:47:50.006Z,6.97
2023-10-23T03:48:53.446Z,7.30
2023-10-23T03:49:55.152Z,7.00
2023-10-23T03:51:00.858Z,7.30
2023-10-23T03:52:02.442Z,6.57
2023-10-23T03:53:04.078Z,6.95
2023-10-23T03:54:05.739Z,6.60
2023-10-23T03:55:07.693Z,6.18
2023-10-23T03:56:09.354Z,7.32
2023-10-23T03:57:10.980Z,6.70
2023-10-23T03:58:12.550Z,6.88
2023-10-23T03:59:14.178Z,6.53
2023-10-23T04:00:16.224Z,7.22
2023-10-23T04:01:17.883Z,7.22
2023-10-23T04:02:19.460Z,6.50
2023-10-23T04:03:21.271Z,7.38
2023-10-23T04:04:23.050Z,6.97
2023-10-23T04:05:24.747Z,7.75
2023-10-23T04:06:26.404Z,7.60
2023-10-23T04:07:28.011Z,6.80
2023-10-23T04:08:29.592Z,8.13
2023-10-23T04:09:32.616Z,7.90
2023-10-23T04:10:34.274Z,8.60
2023-10-23T04:11:35.907Z,8.00
2023-10-23T04:12:37.763Z,7.78
2023-10-23T04:13:39.394Z,7.05
2023-10-23T04:14:40.976Z,8.25
2023-10-23T04:15:53.128Z,8.52
2023-10-23T04:16:54.749Z,8.05
2023-10-23T04:17:56.384Z,7.70
2023-10-23T04:18:58.045Z,7.53
2023-10-23T04:19:59.647Z,7.38
2023-10-23T04:21:09.419Z,7.88
2023-10-23T04:22:11.040Z,7.13
2023-10-23T04:23:12.630Z,7.70
2023-10-23T04:24:14.798Z,8.20
2023-10-23T04:25:19.008Z,9.15
2023-10-23T04:26:20.650Z,8.05
2023-10-23T04:27:22.327Z,7.00
2023-10-23T04:28:24.022Z,7.45
2023-10-23T04:29:25.604Z,7.15
2023-10-23T04:30:27.273Z,7.50
2023-10-23T04:31:28.989Z,7.70
2023-10-23T04:32:31.068Z,8.00
2023-10-23T04:33:33.456Z,8.57
2023-10-23T04:34:37.331Z,7.45
2023-10-23T04:35:38.921Z,7.70
2023-10-23T04:36:40.706Z,7.55
2023-10-23T04:37:42.280Z,8.73
2023-10-23T04:38:43.983Z,7.07
2023-10-23T04:39:45.902Z,8.07
2023-10-23T04:40:48.082Z,7.32
2023-10-23T04:41:49.764Z,8.02
2023-10-23T04:42:51.398Z,6.70
2023-10-23T04:43:53.045Z,7.90
2023-10-23T04:44:54.734Z,6.97
2023-10-23T04:45:58.162Z,7.32
2023-10-23T04:46:59.898Z,8.10
2023-10-23T04:48:01.634Z,7.18
2023-10-23T04:49:03.779Z,7.35
2023-10-23T04:50:08.506Z,8.30
2023-10-23T04:51:11.122Z,7.18
2023-10-23T04:52:12.727Z,7.15
2023-10-23T04:53:14.356Z,7.53
2023-10-23T04:54:15.915Z,7.25
2023-10-23T04:55:17.806Z,7.70
2023-10-23T04:56:19.434Z,7.90
2023-10-23T04:57:21.052Z,7.60
2023-10-23T04:58:22.776Z,7.88
2023-10-23T04:59:25.593Z,7.80
2023-10-23T05:00:27.785Z,7.65
2023-10-23T05:01:29.538Z,7.95
2023-10-23T05:02:31.196Z,7.75
2023-10-23T05:03:33.298Z,8.63
2023-10-23T05:04:35.123Z,8.05
2023-10-23T05:05:37.569Z,7.93
2023-10-23T05:06:39.611Z,7.85
2023-10-23T05:07:41.265Z,8.82
2023-10-23T05:08:42.937Z,7.65
2023-10-23T05:09:44.628Z,8.38
2023-10-23T05:10:46.299Z,8.68
2023-10-23T05:11:47.863Z,7.43
2023-10-23T05:12:51.089Z,7.50
2023-10-23T05:13:53.183Z,8.48
2023-10-23T05:14:55.110Z,9.23
2023-10-23T05:16:06.335Z,7.93
2023-10-23T05:17:08.514Z,7.85
2023-10-23T05:18:10.108Z,8.02
2023-10-23T05:19:11.794Z,8.63
2023-10-23T05:20:13.814Z,8.40
2023-10-23T05:21:15.714Z,9.15
2023-10-23T05:22:17.420Z,8.18
2023-10-23T05:23:19.006Z,8.05
2023-10-23T05:24:20.573Z,7.82
2023-10-23T05:25:22.182Z,8.93
2023-10-23T05:26:23.772Z,8.07
2023-10-23T05:27:25.902Z,7.57
2023-10-23T05:28:27.558Z,7.03
2023-10-23T05:29:29.108Z,8.10
2023-10-23T05:30:30.729Z,7.43
2023-10-23T05:31:32.426Z,7.75
2023-10-23T05:32:36.174Z,8.18
2023-10-23T05:33:38.302Z,8.38
2023-10-23T05:34:40.090Z,7.88
2023-10-23T05:35:41.647Z,8.23
2023-10-23T05:36:43.256Z,8.40
2023-10-23T05:37:44.913Z,8.00
2023-10-23T05:38:46.680Z,8.07
2023-10-23T05:39:48.312Z,7.18
2023-10-23T05:40:57.263Z,9.23
2023-10-23T05:41:58.881Z,7.97
2023-10-23T05:43:00.675Z,8.35
2023-10-23T05:44:02.272Z,8.20
2023-10-23T05:45:04.406Z,9.10
2023-10-23T05:46:06.514Z,7.70
2023-10-23T05:47:08.248Z,7.20
2023-10-23T05:48:09.836Z,7.47
2023-10-23T05:49:11.650Z,7.50
2023-10-23T05:50:13.259Z,7.63
2023-10-23T05:51:14.839Z,7.00
2023-10-23T05:52:16.446Z,8.50
2023-10-23T05:53:18.024Z,8.00
2023-10-23T05:54:19.578Z,7.95
2023-10-23T05:55:22.175Z,7.35
2023-10-23T05:56:23.765Z,7.32
2023-10-23T05:57:25.343Z,7.78
2023-10-23T05:58:26.928Z,7.70
2023-10-23T05:59:28.502Z,8.05
2023-10-23T06:00:30.223Z,6.75
2023-10-23T06:01:31.833Z,7.80
2023-10-23T06:02:33.506Z,7.35
2023-10-23T06:03:35.887Z,8.25
2023-10-23T06:04:37.873Z,7.85
2023-10-23T06:05:43.291Z,7.60
2023-10-23T06:06:45.014Z,8.05
2023-10-23T06:07:46.833Z,7.90
2023-10-23T06:08:48.586Z,7.70
2023-10-23T06:09:50.203Z,7.95
2023-10-23T06:10:51.896Z,7.45
2023-10-23T06:11:53.525Z,8.55
2023-10-23T06:12:55.131Z,8.05
2023-10-23T06:13:56.796Z,6.65
2023-10-23T06:15:00.173Z,6.95
2023-10-23T06:16:06.299Z,7.82
2023-10-23T06:17:08.913Z,6.60
2023-10-23T06:18:10.506Z,7.47
2023-10-23T06:19:12.052Z,7.05
2023-10-23T06:20:13.723Z,7.45
2023-10-23T06:21:15.377Z,10.30
2023-10-23T06:22:17.038Z,11.90
2023-10-23T06:23:18.585Z,8.95
2023-10-23T06:24:20.201Z,7.85
2023-10-23T06:25:21.802Z,8.52
2023-10-23T06:26:24.606Z,7.15
2023-10-23T06:27:26.311Z,7.80
2023-10-23T06:28:28.243Z,8.10
2023-10-23T06:29:29.829Z,7.50
2023-10-23T06:30:31.603Z,7.00
2023-10-23T06:31:33.422Z,6.78
2023-10-23T06:32:35.856Z,7.35
2023-10-23T06:33:40.224Z,6.57
2023-10-23T06:34:41.983Z,7.05
2023-10-23T06:35:43.633Z,8.90
2023-10-23T06:36:45.245Z,9.15
2023-10-23T06:37:46.953Z,7.47
2023-10-23T06:38:48.603Z,7.57
2023-10-23T06:39:50.364Z,6.10
2023-10-23T06:40:52.018Z,6.85
2023-10-23T06:41:53.831Z,6.88
2023-10-23T06:42:55.445Z,7.07
2023-10-23T06:43:57.006Z,6.82
2023-10-23T06:44:58.691Z,6.80
2023-10-23T06:46:02.109Z,6.95
2023-10-23T06:47:04.622Z,6.57
2023-10-23T06:48:06.539Z,7.05
2023-10-23T06:49:08.301Z,7.13
2023-10-23T06:50:11.891Z,6.80
2023-10-23T06:51:14.727Z,8.65
2023-10-23T06:52:16.437Z,6.82
2023-10-23T06:53:18.493Z,7.03
2023-10-23T06:54:22.868Z,7.25
2023-10-23T06:55:25.863Z,7.30
2023-10-23T06:56:27.515Z,7.50
2023-10-23T06:57:29.087Z,7.53
2023-10-23T06:58:30.716Z,7.40
2023-10-23T06:59:32.354Z,7.57
2023-10-23T07:00:33.946Z,7.28
2023-10-23T07:01:44.334Z,6.25
2023-10-23T07:02:49.973Z,6.40
2023-10-23T07:03:52.258Z,7.07
2023-10-23T07:04:54.161Z,6.53
2023-10-23T07:05:55.823Z,6.90
2023-10-23T07:06:57.797Z,6.50
2023-10-23T07:07:59.402Z,6.45
2023-10-23T07:09:01.057Z,6.93
2023-10-23T07:10:04.848Z,6.78
2023-10-23T07:11:17.354Z,6.85
2023-10-23T07:12:18.983Z,7.90
2023-10-23T07:13:23.076Z,7.18
2023-10-23T07:14:25.020Z,6.75
2023-10-23T07:15:26.713Z,7.13
2023-10-23T07:16:28.513Z,6.90
2023-10-23T07:17:30.885Z,6.10
2023-10-23T07:18:32.708Z,6.13
2023-10-23T07:19:34.419Z,5.72
2023-10-23T07:20:35.977Z,5.82
2023-10-23T07:21:38.001Z,5.43
2023-10-23T07:22:39.595Z,6.97
2023-10-23T07:23:41.252Z,6.15
2023-10-23T07:24:42.899Z,6.00
2023-10-23T07:25:44.537Z,6.60
2023-10-23T07:26:46.169Z,6.03
2023-10-23T07:27:48.450Z,6.00
2023-10-23T07:28:50.254Z,6.13
2023-10-23T07:29:52.216Z,6.40
2023-10-23T07:30:56.237Z,6.60
2023-10-23T07:31:57.831Z,6.50
2023-10-23T07:33:00.785Z,6.38
2023-10-23T07:34:04.869Z,6.95
2023-10-23T07:35:09.372Z,5.93
2023-10-23T07:36:12.658Z,5.70
2023-10-23T07:37:19.460Z,6.47
2023-10-23T07:38:21.295Z,6.45
2023-10-23T07:39:22.850Z,6.43
2023-10-23T07:40:24.461Z,6.78
2023-10-23T07:41:26.150Z,6.00
2023-10-23T07:42:27.793Z,6.88
2023-10-23T07:43:30.278Z,5.47
2023-10-23T07:44:31.883Z,5.88
2023-10-23T07:45:38.198Z,6.03
2023-10-23T07:46:40.331Z,6.07
2023-10-23T07:47:42.105Z,6.22
2023-10-23T07:48:43.796Z,5.97
2023-10-23T07:49:45.906Z,5.70
2023-10-23T07:50:47.442Z,6.03
2023-10-23T07:51:49.111Z,5.70
2023-10-23T07:52:51.731Z,5.28
2023-10-23T07:53:53.289Z,5.93
2023-10-23T07:54:54.995Z,5.95
2023-10-23T07:55:56.648Z,6.10
2023-10-23T07:56:58.692Z,5.97
2023-10-23T07:58:01.411Z,5.53
2023-10-23T07:59:03.541Z,5.28
2023-10-23T08:00:07.367Z,6.18
2023-10-23T08:01:11.482Z,5.78
2023-10-23T08:02:13.268Z,5.53
2023-10-23T08:03:15.080Z,5.40
2023-10-23T08:04:17.853Z,6.28
2023-10-23T08:05:19.688Z,5.75
2023-10-23T08:06:21.400Z,5.93
2023-10-23T08:07:23.027Z,5.97
2023-10-23T08:08:24.635Z,5.55
2023-10-23T08:09:26.377Z,6.55
2023-10-23T08:10:28.012Z,6.00
2023-10-23T08:11:29.609Z,6.13
2023-10-23T08:12:31.266Z,5.50
2023-10-23T08:13:33.795Z,6.03
2023-10-23T08:14:35.466Z,6.45
2023-10-23T08:15:39.418Z,5.93
2023-10-23T08:16:41.158Z,5.97
2023-10-23T08:17:43.339Z,6.03
2023-10-23T08:18:45.083Z,6.40
2023-10-23T08:19:46.896Z,6.20
2023-10-23T08:20:48.630Z,5.90
2023-10-23T08:21:50.368Z,5.90
2023-10-23T08:22:52.011Z,6.07
2023-10-23T08:23:59.492Z,6.20
2023-10-23T08:25:01.198Z,5.50
2023-10-23T08:26:02.911Z,5.38
2023-10-23T08:27:04.689Z,6.72
2023-10-23T08:28:06.312Z,6.07
2023-10-23T08:29:08.036Z,5.68
2023-10-23T08:30:10.152Z,6.43
2023-10-23T08:31:24.652Z,6.18
2023-10-23T08:32:34.314Z,5.53
2023-10-23T08:33:39.665Z,5.75
2023-10-23T08:34:41.349Z,5.85
2023-10-23T08:35:42.962Z,5.88
2023-10-23T08:36:44.666Z,5.18
2023-10-23T08:37:46.716Z,5.40
2023-10-23T08:38:48.626Z,5.57
2023-10-23T08:39:50.231Z,6.82
2023-10-23T08:40:52.168Z,5.50
2023-10-23T08:41:55.571Z,5.70
2023-10-23T08:42:57.261Z,5.35
2023-10-23T08:43:59.235Z,5.57
2023-10-23T08:45:01.145Z,6.03
2023-10-23T08:46:02.893Z,6.07
2023-10-23T08:47:05.068Z,5.00
2023-10-23T08:48:06.967Z,5.53
2023-10-23T08:49:08.782Z,6.47
2023-10-23T08:50:11.617Z,6.05
2023-10-23T08:51:15.799Z,6.18
2023-10-23T08:52:20.692Z,5.82
2023-10-23T08:53:25.668Z,5.97
2023-10-23T08:54:28.565Z,5.97
2023-10-23T08:55:30.385Z,6.07
2023-10-23T08:56:40.363Z,5.97
2023-10-23T08:57:53.723Z,6.10
2023-10-23T08:59:00.787Z,6.15
2023-10-23T09:00:02.575Z,5.60
2023-10-23T09:01:04.837Z,5.80
2023-10-23T09:02:06.808Z,5.20
2023-10-23T09:03:11.267Z,6.07
2023-10-23T09:04:13.585Z,5.40
2023-10-23T09:05:15.652Z,6.28
2023-10-23T09:06:19.367Z,5.10
2023-10-23T09:07:21.056Z,4.82
2023-10-23T09:08:22.682Z,6.07
2023-10-23T09:09:25.380Z,5.03
2023-10-23T09:10:27.488Z,5.50
2023-10-23T09:11:39.786Z,5.70
2023-10-23T09:12:41.706Z,5.28
2023-10-23T09:13:43.396Z,5.55
2023-10-23T09:14:45.228Z,5.30
2023-10-23T09:15:52.855Z,5.80
2023-10-23T09:16:57.050Z,5.90
2023-10-23T09:18:00.105Z,5.22
2023-10-23T09:19:01.852Z,5.88
2023-10-23T09:20:20.198Z,5.45
2023-10-23T09:21:23.043Z,5.47
2023-10-23T09:22:29.355Z,6.00
2023-10-23T09:23:31.012Z,5.55
2023-10-23T09:24:32.904Z,5.68
2023-10-23T09:25:34.910Z,5.70
2023-10-23T09:26:36.524Z,6.18
2023-10-23T09:27:38.147Z,5.50
2023-10-23T09:28:39.715Z,5.45
2023-10-23T09:29:41.468Z,5.47
2023-10-23T09:30:43.720Z,5.82
2023-10-23T09:31:45.451Z,5.70
2023-10-23T09:32:54.542Z,4.93
2023-10-23T09:33:56.696Z,5.28
2023-10-23T09:34:58.447Z,5.13
2023-10-23T09:36:02.244Z,5.32
2023-10-23T09:37:04.117Z,6.07
2023-10-23T09:38:16.306Z,4.55
2023-10-23T09:39:23.787Z,5.53
2023-10-23T09:40:25.797Z,5.25
2023-10-23T09:41:28.755Z,4.82
2023-10-23T09:42:33.396Z,5.25
2023-10-23T09:43:35.850Z,5.50
2023-10-23T09:44:40.084Z,5.85
2023-10-23T09:45:43.510Z,4.97
2023-10-23T09:46:49.430Z,5.50
2023-10-23T09:47:56.067Z,4.97
2023-10-23T09:49:01.715Z,5.07
2023-10-23T09:50:05.125Z,5.05
2023-10-23T09:51:08.608Z,5.45
2023-10-23T09:52:11.322Z,5.30
2023-10-23T09:53:14.283Z,5.47
2023-10-23T09:54:19.017Z,5.63
2023-10-23T09:55:24.229Z,4.95
2023-10-23T09:56:31.868Z,5.28
2023-10-23T09:57:35.248Z,4.80
2023-10-23T09:58:41.885Z,5.13
2023-10-23T09:59:49.785Z,5.38
2023-10-23T10:00:57.015Z,5.45
2023-10-23T10:02:01.958Z,5.00
2023-10-23T10:03:09.572Z,5.20
2023-10-23T10:04:21.863Z,7.35
2023-10-23T10:05:39.091Z,5.20
2023-10-23T10:06:46.870Z,5.50
2023-10-23T10:08:04.383Z,5.53
2023-10-23T10:09:13.446Z,6.07
2023-10-23T10:10:15.998Z,4.95
2023-10-23T10:11:19.435Z,5.20
2023-10-23T10:12:22.367Z,5.00
2023-10-23T10:13:24.790Z,5.57
2023-10-23T10:14:28.461Z,5.18
2023-10-23T10:15:32.468Z,5.82
2023-10-23T10:16:35.089Z,5.50
2023-10-23T10:17:38.367Z,5.45
2023-10-23T10:18:40.680Z,4.78
2023-10-23T10:19:42.873Z,5.20
2023-10-23T10:20:48.389Z,4.80
2023-10-23T10:22:16.091Z,5.22
2023-10-23T10:23:19.491Z,5.53
2023-10-23T10:24:22.109Z,5.75
2023-10-23T10:25:26.285Z,5.18
2023-10-23T10:26:28.134Z,5.15
2023-10-23T10:27:29.879Z,5.78
2023-10-23T10:28:31.680Z,5.43
2023-10-23T10:29:33.368Z,4.88
2023-10-23T10:30:48.083Z,5.32
2023-10-23T10:32:13.934Z,5.88
2023-10-23T10:34:24.350Z,6.30
2023-10-23T10:34:46.446Z,7.75
2023-10-23T10:35:51.447Z,4.93
2023-10-23T10:36:54.725Z,5.78
2023-10-23T10:38:00.666Z,5.68
2023-10-23T10:39:02.314Z,5.30
2023-10-23T10:40:06.159Z,8.50
2023-10-23T10:41:14.014Z,6.60
2023-10-23T10:42:23.139Z,6.20
2023-10-23T10:43:38.812Z,5.22
2023-10-23T10:45:03.117Z,5.50
2023-10-23T10:46:24.613Z,5.53
2023-10-23T10:47:38.357Z,4.78
2023-10-23T10:48:45.317Z,5.13
2023-10-23T10:49:48.141Z,4.90
2023-10-23T10:50:49.743Z,5.35
2023-10-23T10:51:52.102Z,4.78
2023-10-23T10:52:53.710Z,5.43
2023-10-23T10:54:18.233Z,5.38
2023-10-23T10:55:19.938Z,5.50
2023-10-23T10:56:21.824Z,5.03
2023-10-23T10:57:23.636Z,5.15
2023-10-23T10:58:25.800Z,5.03
2023-10-23T10:59:27.763Z,5.47
2023-10-23T11:00:30.972Z,5.50
2023-10-23T11:01:34.147Z,5.55
2023-10-23T11:02:36.205Z,5.90
2023-10-23T11:03:38.248Z,6.55
2023-10-23T11:04:40.061Z,5.68
2023-10-23T11:05:45.827Z,5.07
2023-10-23T11:06:47.450Z,5.40
2023-10-23T11:07:50.772Z,5.68
2023-10-23T11:08:52.920Z,6.05
2023-10-23T11:09:55.330Z,6.47
2023-10-23T11:11:05.946Z,5.80
2023-10-23T11:12:08.134Z,5.10
2023-10-23T11:13:14.603Z,6.25
2023-10-23T11:14:16.694Z,5.47
2023-10-23T11:15:19.335Z,5.30
2023-10-23T11:16:21.912Z,5.40
2023-10-23T11:17:24.402Z,5.78
2023-10-23T11:18:26.623Z,5.30
2023-10-23T11:19:28.855Z,6.03
2023-10-23T11:20:32.598Z,6.25
2023-10-23T11:21:34.385Z,5.95
2023-10-23T11:22:39.446Z,5.47
2023-10-23T11:23:41.064Z,5.78
2023-10-23T11:24:43.603Z,5.57
2023-10-23T11:25:49.917Z,6.25
2023-10-23T11:26:51.462Z,6.03
2023-10-23T11:27:53.487Z,5.88
2023-10-23T11:28:55.136Z,6.13
2023-10-23T11:29:56.861Z,6.10
2023-10-23T11:31:01.375Z,5.63
2023-10-23T11:32:05.118Z,6.00
2023-10-23T11:33:08.837Z,6.55
2023-10-23T11:34:13.313Z,5.38
2023-10-23T11:35:14.910Z,5.75
2023-10-23T11:36:18.528Z,6.80
2023-10-23T11:37:20.671Z,6.03
2023-10-23T11:38:25.353Z,6.13
2023-10-23T11:39:32.117Z,5.78
2023-10-23T11:40:36.093Z,5.95
2023-10-23T11:41:37.716Z,5.43
2023-10-23T11:42:50.819Z,6.13
2023-10-23T11:44:01.298Z,6.55
2023-10-23T11:45:03.969Z,5.25
2023-10-23T11:46:06.044Z,5.45
2023-10-23T11:47:09.141Z,5.30
2023-10-23T11:48:13.413Z,5.18
2023-10-23T11:49:19.628Z,6.05
2023-10-23T11:50:23.038Z,5.00
2023-10-23T11:51:25.372Z,6.13
2023-10-23T11:52:27.008Z,5.28
2023-10-23T11:53:34.160Z,5.00
2023-10-23T11:54:35.744Z,5.40
2023-10-23T11:55:39.164Z,5.35
2023-10-23T11:56:43.900Z,6.28
2023-10-23T11:57:52.099Z,5.82
2023-10-23T11:58:56.102Z,5.47
2023-10-23T11:59:57.720Z,5.82
2023-10-23T12:00:59.418Z,6.47
2023-10-23T12:02:02.883Z,5.40
2023-10-23T12:03:07.729Z,5.57
2023-10-23T12:04:09.782Z,5.40
2023-10-23T12:05:13.444Z,6.22
2023-10-23T12:06:15.211Z,5.35
2023-10-23T12:07:16.885Z,6.43
2023-10-23T12:08:18.545Z,5.70
2023-10-23T12:09:20.273Z,6.43
2023-10-23T12:10:26.694Z,6.20
2023-10-23T12:11:29.849Z,6.80
2023-10-23T12:12:31.413Z,5.68
2023-10-23T12:13:33.146Z,6.20
2023-10-23T12:14:34.743Z,5.70
2023-10-23T12:15:36.337Z,6.30
2023-10-23T12:16:38.046Z,6.03
2023-10-23T12:17:40.487Z,5.93
2023-10-23T12:18:42.826Z,5.60
2023-10-23T12:19:44.430Z,6.05
2023-10-23T12:20:46.059Z,6.88
2023-10-23T12:21:47.723Z,6.57
2023-10-23T12:22:50.160Z,6.07
2023-10-23T12:23:52.380Z,5.78
2023-10-23T12:24:53.982Z,6.15
2023-10-23T12:25:55.767Z,5.55
2023-10-23T12:26:59.100Z,5.80
2023-10-23T12:28:00.931Z,5.95
2023-10-23T12:29:06.361Z,5.82
2023-10-23T12:30:10.139Z,7.28
2023-10-23T12:31:23.535Z,6.00
2023-10-23T12:33:13.959Z,5.95
2023-10-23T12:33:50.286Z,6.28
2023-10-23T12:34:52.143Z,5.68
2023-10-23T12:35:53.937Z,6.07
2023-10-23T12:36:55.628Z,6.57
2023-10-23T12:37:57.225Z,5.75
2023-10-23T12:38:58.797Z,5.65
2023-10-23T12:40:03.937Z,5.85
2023-10-23T12:41:05.592Z,5.72
2023-10-23T12:42:07.274Z,5.50
2023-10-23T12:43:09.007Z,5.57
2023-10-23T12:44:10.654Z,5.55
2023-10-23T12:45:12.332Z,6.65
2023-10-23T12:46:14.026Z,5.47
2023-10-23T12:47:15.895Z,5.75
2023-10-23T12:48:17.945Z,5.45
2023-10-23T12:49:19.610Z,6.32
2023-10-23T12:50:21.641Z,5.75
2023-10-23T12:51:23.642Z,5.25
2023-10-23T12:52:25.289Z,6.22
2023-10-23T12:53:27.069Z,5.35
2023-10-23T12:54:28.784Z,6.28
2023-10-23T12:55:30.466Z,5.90
2023-10-23T12:56:33.014Z,5.53
2023-10-23T12:57:34.601Z,6.18
2023-10-23T12:58:36.372Z,5.82
2023-10-23T12:59:38.125Z,5.97
2023-10-23T13:00:39.913Z,5.50
2023-10-23T13:01:41.634Z,5.53
2023-10-23T13:02:44.086Z,5.75
2023-10-23T13:03:48.433Z,5.47
2023-10-23T13:04:50.258Z,5.57
2023-10-23T13:05:52.012Z,5.35
2023-10-23T13:06:54.762Z,6.10
2023-10-23T13:07:56.613Z,5.75
2023-10-23T13:08:58.217Z,6.20
2023-10-23T13:09:59.791Z,6.35
2023-10-23T13:11:02.104Z,6.22
2023-10-23T13:12:04.115Z,5.50
2023-10-23T13:13:05.723Z,5.43
2023-10-23T13:14:07.320Z,5.45
2023-10-23T13:15:09.332Z,5.93
2023-10-23T13:16:11.907Z,5.90
2023-10-23T13:17:15.368Z,6.35
2023-10-23T13:18:17.038Z,5.65
2023-10-23T13:19:19.429Z,5.10
2023-10-23T13:21:30.612Z,6.03
2023-10-23T13:21:42.694Z,4.70
2023-10-23T13:22:46.747Z,5.97
2023-10-23T13:23:52.642Z,6.18
2023-10-23T13:24:54.318Z,5.82
2023-10-23T13:26:10.192Z,6.07
2023-10-23T13:27:16.885Z,4.95
2023-10-23T13:28:18.547Z,5.90
2023-10-23T13:29:21.022Z,5.38
2023-10-23T13:30:22.989Z,5.45
2023-10-23T13:31:26.847Z,4.50
2023-10-23T13:32:28.562Z,5.00
2023-10-23T13:33:30.184Z,4.88
2023-10-23T13:34:31.970Z,5.45
2023-10-23T13:35:33.675Z,5.90
2023-10-23T13:36:35.297Z,5.32
2023-10-23T13:37:37.173Z,5.35
2023-10-23T13:38:40.072Z,4.65
2023-10-23T13:39:41.666Z,5.20
2023-10-23T13:40:43.749Z,6.28
2023-10-23T13:41:45.565Z,5.30
2023-10-23T13:42:47.176Z,4.97
2023-10-23T13:43:48.877Z,5.80
2023-10-23T13:44:50.694Z,5.75
2023-10-23T13:45:53.138Z,5.03
2023-10-23T13:46:54.956Z,5.03
2023-10-23T13:47:58.339Z,4.85
2023-10-23T13:49:02.290Z,5.13
2023-10-23T13:50:05.278Z,5.60
2023-10-23T13:51:06.935Z,5.50
2023-10-23T13:52:08.554Z,5.47
2023-10-23T13:53:10.153Z,5.75
2023-10-23T13:54:11.754Z,4.82
2023-10-23T13:55:13.464Z,5.93
2023-10-23T13:56:15.112Z,5.95
2023-10-23T13:57:16.666Z,5.55